Songa Opal — V7RO5 — position and weather

sailwx.info

Track history (hours):
 
Tides and Currents Weather Stations Pressure Air Temp Water Temp Dewpoint Dewpoint Depression Visibility Wind Speed Wind Dir Waves Ship Positions

Songa Opal

Last reported at 2018-Mar-14 09:55 UTC. Time now 2018-Apr-20 01:13 UTC.
Position N 01°23' E 103°13'.
Warning: this ship's position is 36 days out of date.

Length 148 m; draft 7 m.

Type: Ship. MMSI: 538003550.

Date/timePositionNaut miles runAvg speedWind from/ knotsBaromVisibWave heightAir tempDewpointWater temp
2018-Mar-14 09:55N 01°23' E 103°13'714.9
2018-Mar-14 09:26N 01°18' E 103°18'815.0
2018-Mar-14 08:55N 01°14' E 103°25'614.9
2018-Mar-14 08:31N 01°13' E 103°31'714.0
2018-Mar-14 08:00N 01°11' E 103°38'713.1
2018-Mar-14 07:30N 01°08' E 103°43'612.1
2018-Mar-14 06:59N 01°11' E 103°49'612.2
2018-Mar-14 06:30N 01°13' E 103°55'  
2018-Mar-11 06:17N 01°15' E 104°01'2 7.8
2018-Mar-11 05:59N 01°17' E 103°59'0 0.5
2018-Mar-11 05:06N 01°17' E 103°59'0 0.0
2018-Mar-11 04:39N 01°17' E 103°59'0 0.0
2018-Mar-11 04:30N 01°17' E 103°59'0 0.0
2018-Mar-11 02:06N 01°17' E 103°59'0 0.0
2018-Mar-11 01:42N 01°17' E 103°59'0 0.0
2018-Mar-11 00:15N 01°17' E 103°59'0 0.0
2018-Mar-10 23:51N 01°17' E 103°59'0 0.0
2018-Mar-10 23:24N 01°17' E 103°59'0 0.0
2018-Mar-10 15:39N 01°17' E 103°59'0 0.4
2018-Mar-10 15:30N 01°17' E 103°59'1 2.8
2018-Mar-10 14:59N 01°17' E 103°57'2 3.9
2018-Mar-10 14:30N 01°15' E 103°57'4 8.0
2018-Mar-10 14:01N 01°12' E 103°54'610.8
2018-Mar-10 13:30N 01°10' E 103°49'510.7
2018-Mar-10 13:01N 01°07' E 103°45'611.7
2018-Mar-10 12:30N 01°03' E 103°40'711.7
2018-Mar-10 11:54N 01°06' E 103°34'512.5
2018-Mar-10 11:30N 01°10' E 103°32'510.1
2018-Mar-10 10:58N 01°16' E 103°33'5 9.9
2018-Mar-10 10:30N 01°20' E 103°33'1 1.7
2018-Mar-10 09:58N 01°21' E 103°32'0 0.0
2018-Mar-10 09:29N 01°21' E 103°32'0 0.0
2018-Mar-10 09:00N 01°21' E 103°32'0 0.0
2018-Mar-10 08:23N 01°21' E 103°32'0 0.0
2018-Mar-10 07:35N 01°21' E 103°32'0 0.0
2018-Mar-10 07:29N 01°21' E 103°32'0 0.0
2018-Mar-10 06:11N 01°21' E 103°32'0 0.0
2018-Mar-10 05:59N 01°21' E 103°32'0 0.0
2018-Mar-10 05:29N 01°21' E 103°32'0 0.0
2018-Mar-10 04:53N 01°21' E 103°32'0 0.0
2018-Mar-10 04:05N 01°21' E 103°32'0 0.0
2018-Mar-10 03:47N 01°21' E 103°32'0 0.0
2018-Mar-10 03:17N 01°21' E 103°32'0 0.0
2018-Mar-10 02:53N 01°21' E 103°32'0 0.0
2018-Mar-10 02:23N 01°21' E 103°32'0 0.0
2018-Mar-10 01:59N 01°21' E 103°32'0 0.0
2018-Mar-10 01:29N 01°21' E 103°32'0 0.0
2018-Mar-10 00:59N 01°21' E 103°32'0 0.0
2018-Mar-09 23:59N 01°21' E 103°32'0 0.0
2018-Mar-09 22:44N 01°21' E 103°32'0 0.0
2018-Mar-09 22:29N 01°21' E 103°32'0 0.0
2018-Mar-09 21:59N 01°21' E 103°32'0 0.0
2018-Mar-09 21:05N 01°21' E 103°32'0 0.0
2018-Mar-09 20:11N 01°21' E 103°32'0 0.0
2018-Mar-09 17:41N 01°21' E 103°32'0 0.0
2018-Mar-09 17:29N 01°21' E 103°32'0 0.0
2018-Mar-09 16:59N 01°21' E 103°32'0 0.0
2018-Mar-09 16:20N 01°21' E 103°32'0 0.0
2018-Mar-09 15:59N 01°21' E 103°32'0 0.0
2018-Mar-09 15:23N 01°21' E 103°32'0 0.0
2018-Mar-09 14:53N 01°21' E 103°32'0 0.0
2018-Mar-09 14:20N 01°21' E 103°32'0 0.0
2018-Mar-09 13:56N 01°21' E 103°32'0 0.0
2018-Mar-09 13:29N 01°21' E 103°32'0 0.0
2018-Mar-09 12:59N 01°21' E 103°32'0 0.0
2018-Mar-09 12:23N 01°21' E 103°32'0 0.0
2018-Mar-09 11:56N 01°21' E 103°32'0 0.0
2018-Mar-09 11:29N 01°21' E 103°32'0 0.0
2018-Mar-09 10:59N 01°21' E 103°32'0 0.0
2018-Mar-09 10:26N 01°21' E 103°32'0 0.0
2018-Mar-09 09:50N 01°21' E 103°32'0 0.0
2018-Mar-09 09:26N 01°21' E 103°32'0 0.0
2018-Mar-09 08:59N 01°21' E 103°32'0 0.0
2018-Mar-09 08:23N 01°21' E 103°32'0 0.0
2018-Mar-09 07:59N 01°21' E 103°32'0 0.0
2018-Mar-09 07:30N 01°21' E 103°32'0 0.5
2018-Mar-09 06:59N 01°21' E 103°32'2 4.7
2018-Mar-09 06:30N 01°19' E 103°33'3 5.6
2018-Mar-09 05:59N 01°16' E 103°34'1 1.1
2018-Mar-09 05:28N 01°16' E 103°34'0 0.0
2018-Mar-09 05:00N 01°16' E 103°34'0 0.1
2018-Mar-09 04:27N 01°16' E 103°34'0 0.0
2018-Mar-09 04:00N 01°16' E 103°34'0 0.0
2018-Mar-09 03:30N 01°16' E 103°34'0 0.0
2018-Mar-09 03:00N 01°16' E 103°34'0 0.0
2018-Mar-09 02:30N 01°16' E 103°34'0 0.0
2018-Mar-09 02:00N 01°16' E 103°34'0 0.1
2018-Mar-09 01:30N 01°16' E 103°34'0 0.0
2018-Mar-09 01:00N 01°16' E 103°34'0 0.0
2018-Mar-09 00:30N 01°16' E 103°34'0 0.0
2018-Mar-08 23:59N 01°16' E 103°34'0 0.0
2018-Mar-08 23:30N 01°16' E 103°34'0 0.0
2018-Mar-08 22:59N 01°16' E 103°34'0 0.0
2018-Mar-08 22:28N 01°16' E 103°34'0 0.3
2018-Mar-08 22:00N 01°16' E 103°34'2 4.1
2018-Mar-08 21:30N 01°15' E 103°33'1 2.8
2018-Mar-08 21:00N 01°14' E 103°32'5 9.6
2018-Mar-08 20:30N 01°12' E 103°37'  
Track history (hours):
 
Tides and Currents Weather Stations Pressure Air Temp Water Temp Dewpoint Dewpoint Depression Visibility Wind Speed Wind Dir Waves Ship Positions

Songa Opal

Last reported at 2018-Mar-14 09:55 UTC. Time now 2018-Apr-20 01:13 UTC.
Position N 01°23' E 103°13'.
Warning: this ship's position is 36 days out of date.

Length 148 m; draft 7 m.

Type: Ship. MMSI: 538003550.

Date/timePositionNaut miles runAvg speedWind from/ knotsBaromVisibWave heightAir tempDewpointWater temp
2018-Mar-14 09:55N 01°23' E 103°13'714.9
2018-Mar-14 09:26N 01°18' E 103°18'815.0
2018-Mar-14 08:55N 01°14' E 103°25'614.9
2018-Mar-14 08:31N 01°13' E 103°31'714.0
2018-Mar-14 08:00N 01°11' E 103°38'713.1
2018-Mar-14 07:30N 01°08' E 103°43'612.1
2018-Mar-14 06:59N 01°11' E 103°49'612.2
2018-Mar-14 06:30N 01°13' E 103°55'  
2018-Mar-11 06:17N 01°15' E 104°01'2 7.8
2018-Mar-11 05:59N 01°17' E 103°59'0 0.5
2018-Mar-11 05:06N 01°17' E 103°59'0 0.0
2018-Mar-11 04:39N 01°17' E 103°59'0 0.0
2018-Mar-11 04:30N 01°17' E 103°59'0 0.0
2018-Mar-11 02:06N 01°17' E 103°59'0 0.0
2018-Mar-11 01:42N 01°17' E 103°59'0 0.0
2018-Mar-11 00:15N 01°17' E 103°59'0 0.0
2018-Mar-10 23:51N 01°17' E 103°59'0 0.0
2018-Mar-10 23:24N 01°17' E 103°59'0 0.0
2018-Mar-10 15:39N 01°17' E 103°59'0 0.4
2018-Mar-10 15:30N 01°17' E 103°59'1 2.8
2018-Mar-10 14:59N 01°17' E 103°57'2 3.9
2018-Mar-10 14:30N 01°15' E 103°57'4 8.0
2018-Mar-10 14:01N 01°12' E 103°54'610.8
2018-Mar-10 13:30N 01°10' E 103°49'510.7
2018-Mar-10 13:01N 01°07' E 103°45'611.7
2018-Mar-10 12:30N 01°03' E 103°40'711.7
2018-Mar-10 11:54N 01°06' E 103°34'512.5
2018-Mar-10 11:30N 01°10' E 103°32'510.1
2018-Mar-10 10:58N 01°16' E 103°33'5 9.9
2018-Mar-10 10:30N 01°20' E 103°33'1 1.7
2018-Mar-10 09:58N 01°21' E 103°32'0 0.0
2018-Mar-10 09:29N 01°21' E 103°32'0 0.0
2018-Mar-10 09:00N 01°21' E 103°32'0 0.0
2018-Mar-10 08:23N 01°21' E 103°32'0 0.0
2018-Mar-10 07:35N 01°21' E 103°32'0 0.0
2018-Mar-10 07:29N 01°21' E 103°32'0 0.0
2018-Mar-10 06:11N 01°21' E 103°32'0 0.0
2018-Mar-10 05:59N 01°21' E 103°32'0 0.0
2018-Mar-10 05:29N 01°21' E 103°32'0 0.0
2018-Mar-10 04:53N 01°21' E 103°32'0 0.0
2018-Mar-10 04:05N 01°21' E 103°32'0 0.0
2018-Mar-10 03:47N 01°21' E 103°32'0 0.0
2018-Mar-10 03:17N 01°21' E 103°32'0 0.0
2018-Mar-10 02:53N 01°21' E 103°32'0 0.0
2018-Mar-10 02:23N 01°21' E 103°32'0 0.0
2018-Mar-10 01:59N 01°21' E 103°32'0 0.0
2018-Mar-10 01:29N 01°21' E 103°32'0 0.0
2018-Mar-10 00:59N 01°21' E 103°32'0 0.0
2018-Mar-09 23:59N 01°21' E 103°32'0 0.0
2018-Mar-09 22:44N 01°21' E 103°32'0 0.0
2018-Mar-09 22:29N 01°21' E 103°32'0 0.0
2018-Mar-09 21:59N 01°21' E 103°32'0 0.0
2018-Mar-09 21:05N 01°21' E 103°32'0 0.0
2018-Mar-09 20:11N 01°21' E 103°32'0 0.0
2018-Mar-09 17:41N 01°21' E 103°32'0 0.0
2018-Mar-09 17:29N 01°21' E 103°32'0 0.0
2018-Mar-09 16:59N 01°21' E 103°32'0 0.0
2018-Mar-09 16:20N 01°21' E 103°32'0 0.0
2018-Mar-09 15:59N 01°21' E 103°32'0 0.0
2018-Mar-09 15:23N 01°21' E 103°32'0 0.0
2018-Mar-09 14:53N 01°21' E 103°32'0 0.0
2018-Mar-09 14:20N 01°21' E 103°32'0 0.0
2018-Mar-09 13:56N 01°21' E 103°32'0 0.0
2018-Mar-09 13:29N 01°21' E 103°32'0 0.0
2018-Mar-09 12:59N 01°21' E 103°32'0 0.0
2018-Mar-09 12:23N 01°21' E 103°32'0 0.0
2018-Mar-09 11:56N 01°21' E 103°32'0 0.0
2018-Mar-09 11:29N 01°21' E 103°32'0 0.0
2018-Mar-09 10:59N 01°21' E 103°32'0 0.0
2018-Mar-09 10:26N 01°21' E 103°32'0 0.0
2018-Mar-09 09:50N 01°21' E 103°32'0 0.0
2018-Mar-09 09:26N 01°21' E 103°32'0 0.0
2018-Mar-09 08:59N 01°21' E 103°32'0 0.0
2018-Mar-09 08:23N 01°21' E 103°32'0 0.0
2018-Mar-09 07:59N 01°21' E 103°32'0 0.0
2018-Mar-09 07:30N 01°21' E 103°32'0 0.5
2018-Mar-09 06:59N 01°21' E 103°32'2 4.7
2018-Mar-09 06:30N 01°19' E 103°33'3 5.6
2018-Mar-09 05:59N 01°16' E 103°34'1 1.1
2018-Mar-09 05:28N 01°16' E 103°34'0 0.0
2018-Mar-09 05:00N 01°16' E 103°34'0 0.1
2018-Mar-09 04:27N 01°16' E 103°34'0 0.0
2018-Mar-09 04:00N 01°16' E 103°34'0 0.0
2018-Mar-09 03:30N 01°16' E 103°34'0 0.0
2018-Mar-09 03:00N 01°16' E 103°34'0 0.0
2018-Mar-09 02:30N 01°16' E 103°34'0 0.0
2018-Mar-09 02:00N 01°16' E 103°34'0 0.1
2018-Mar-09 01:30N 01°16' E 103°34'0 0.0
2018-Mar-09 01:00N 01°16' E 103°34'0 0.0
2018-Mar-09 00:30N 01°16' E 103°34'0 0.0
2018-Mar-08 23:59N 01°16' E 103°34'0 0.0
2018-Mar-08 23:30N 01°16' E 103°34'0 0.0
2018-Mar-08 22:59N 01°16' E 103°34'0 0.0
2018-Mar-08 22:28N 01°16' E 103°34'0 0.3
2018-Mar-08 22:00N 01°16' E 103°34'2 4.1
2018-Mar-08 21:30N 01°15' E 103°33'1 2.8
2018-Mar-08 21:00N 01°14' E 103°32'5 9.6
2018-Mar-08 20:30N 01°12' E 103°37'  

Dump ship's entire track history